Bureau, Illinois
Current Conditions -  °F | °C
As of 8:15 PM on Friday 19 Dec 2014 (Local Time) from KVYS Reporting Station
Overcast Overcast  
Wind Chill: 26°   Ceiling: 3900
Heat Index: 30°   Visibility: 10mi
Dew Point: 25°   Wind: 5mph
Humidity: 80%   Direction: 60°ENE
Pressure: 30.29"   Gusts: NA
Location:  41.29°N, 89.37°W
Report Text: KVYS 200215Z AUTO 06004KT 10SM OVC039 M01/M04 A3029 RMK AO2 T10091040
Loading
Personal Weather Stations






























Interactive Weather Map New forecast layout! Learn more

10-Day Weather Forecast

Advertisements
Track Severe Weather on mobile